Time;durP1;ratioP1;P1;durP2;ratioP2;P2;SDS_P1;SDS_P2;PMS_P1;PMS_P2;Temp;Humidity;BMP_temperature;BMP_pressure;BME280_temperature;BME280_humidity;BME280_pressure;Samples;Min_cycle;Max_cycle;Signal;HPM_P1;HPM_P2
2023/05/30 04:50:09;;;;;;;11.70;4.40;;;;;;;;;;5133068;27;20263;-82
2023/05/30 05:08:46;;;;;;;10.10;4.43;;;;;;;;;;5135155;27;20273;-78
2023/05/30 05:14:10;;;;;;;6.90;4.43;;;11.90;99.90;;;;;;5134524;27;20290;-78
2023/05/30 05:20:31;;;;;;;6.00;4.30;;;11.80;99.90;;;;;;5071723;28;20521;-78
2023/05/30 05:26:10;;;;;;;7.23;4.37;;;11.90;99.90;;;;;;5137237;27;20463;-79
2023/05/30 05:30:45;;;;;;;6.00;3.87;;;11.90;99.90;;;;;;5051626;27;2916478;-79
2023/05/30 05:35:37;;;;;;;8.00;4.83;;;11.90;99.90;;;;;;5046587;27;1387179;-78
2023/05/30 05:40:31;;;;;;;7.80;4.40;;;12.20;99.90;;;;;;5113957;27;20547;-80
2023/05/30 05:45:09;;;;;;;13.97;4.97;;;12.30;99.90;;;;;;5139260;27;20285;-79
2023/05/30 05:48:54;;;;;;;5.13;3.87;;;12.50;99.90;;;;;;5164701;27;21056;-78
2023/05/30 05:52:48;;;;;;;6.63;4.50;;;12.50;99.90;;;;;;5137327;27;20285;-79
2023/05/30 05:56:51;;;;;;;11.37;4.83;;;12.70;99.90;;;;;;5074095;28;20612;-79
2023/05/30 06:00:47;;;;;;;7.33;4.20;;;12.80;99.90;;;;;;5071686;28;20548;-76
2023/05/30 06:04:39;;;;;;;8.63;4.43;;;13.10;99.90;;;;;;5072394;28;20625;-77
2023/05/30 06:08:40;;;;;;;7.83;3.97;;;13.30;99.90;;;;;;5136364;27;20274;-81
2023/05/30 06:12:48;;;;;;;6.60;4.30;;;13.40;99.90;;;;;;5133046;27;20625;-81
2023/05/30 06:16:42;;;;;;;4.73;3.73;;;13.50;99.90;;;;;;5133548;27;20267;-81
2023/05/30 06:20:37;;;;;;;8.20;3.93;;;13.50;99.90;;;;;;5134683;27;20276;-80
2023/05/30 06:24:36;;;;;;;7.00;4.00;;;13.60;99.90;;;;;;5133960;27;20286;-80
2023/05/30 06:28:37;;;;;;;11.90;4.63;;;13.80;99.90;;;;;;5134120;27;20270;-80
2023/05/30 06:32:35;;;;;;;7.50;4.73;;;14.00;99.90;;;;;;5134570;27;20743;-80
2023/05/30 06:36:33;;;;;;;7.53;4.43;;;14.30;99.90;;;;;;5134102;27;20278;-81
2023/05/30 06:41:34;;;;;;;14.80;4.40;;;14.50;99.90;;;;;;5134794;27;20265;-80
2023/05/30 06:44:00;;;;;;;7.93;4.33;;;14.70;99.90;;;;;;5135898;28;20619;-81
2023/05/30 06:48:34;;;;;;;6.33;4.73;;;14.90;99.90;;;;;;5135580;27;20275;-80
2023/05/30 06:52:35;;;;;;;7.47;4.40;;;15.00;99.90;;;;;;5134642;27;20274;-80
2023/05/30 06:57:36;;;;;;;7.13;4.27;;;15.00;99.90;;;;;;5114265;27;20724;-79
2023/05/30 07:00:03;;;;;;;8.50;4.17;;;15.00;99.90;;;;;;5095588;28;20657;-82
2023/05/30 07:02:29;;;;;;;7.17;4.50;;;15.10;99.90;;;;;;5096241;28;20172;-82
2023/05/30 07:04:55;;;;;;;8.20;4.33;;;15.20;99.90;;;;;;5116310;28;20247;-80
2023/05/30 07:07:20;;;;;;;7.93;4.50;;;15.40;99.90;;;;;;5113461;28;20647;-81
2023/05/30 07:09:46;;;;;;;9.30;4.40;;;15.50;99.90;;;;;;5113371;28;20679;-81
2023/05/30 07:12:12;;;;;;;8.20;4.23;;;15.70;99.90;;;;;;5120731;28;20192;-81
2023/05/30 07:14:38;;;;;;;5.33;3.70;;;16.00;99.90;;;;;;5127271;28;20221;-79
2023/05/30 07:17:07;;;;;;;6.67;3.67;;;16.10;99.90;;;;;;5114331;28;20284;-81
2023/05/30 07:19:32;;;;;;;5.97;3.60;;;16.30;99.90;;;;;;5093447;28;20189;-79
2023/05/30 07:21:58;;;;;;;5.53;4.03;;;16.30;99.90;;;;;;5112034;28;20168;-80
2023/05/30 07:24:24;;;;;;;8.87;4.30;;;16.30;99.90;;;;;;5113112;28;20246;-80
2023/05/30 07:26:50;;;;;;;5.93;3.90;;;16.20;99.90;;;;;;5095011;28;20178;-79
2023/05/30 07:29:16;;;;;;;9.87;4.43;;;16.20;99.90;;;;;;5113004;28;20637;-80
2023/05/30 07:31:42;;;;;;;7.00;4.53;;;16.30;99.90;;;;;;5094861;28;20182;-81
2023/05/30 07:34:07;;;;;;;5.67;4.70;;;16.50;99.90;;;;;;5094706;28;20608;-82
2023/05/30 07:36:33;;;;;;;7.73;4.10;;;16.60;99.90;;;;;;5094487;28;20287;-80
2023/05/30 07:38:58;;;;;;;5.37;3.63;;;16.80;99.90;;;;;;5094136;28;20580;-79
2023/05/30 07:41:24;;;;;;;5.63;3.77;;;16.90;99.90;;;;;;5111670;28;20338;-80
2023/05/30 07:43:50;;;;;;;7.20;4.40;;;17.00;99.90;;;;;;5094441;28;20259;-80
2023/05/30 07:46:16;;;;;;;7.37;4.20;;;17.20;99.90;;;;;;5112827;28;20596;-81
2023/05/30 07:48:41;;;;;;;5.33;3.90;;;17.30;99.90;;;;;;5094420;28;20258;-80
2023/05/30 07:51:08;;;;;;;4.87;3.70;;;17.50;99.90;;;;;;5111918;28;20539;-79
2023/05/30 07:53:34;;;;;;;6.43;3.80;;;17.60;99.90;;;;;;5112752;28;20210;-80
2023/05/30 07:56:00;;;;;;;4.90;3.57;;;17.80;99.90;;;;;;5094550;28;20752;-81
2023/05/30 07:58:25;;;;;;;6.03;4.27;;;17.90;99.90;;;;;;5094367;28;20672;-79
2023/05/30 08:00:51;;;;;;;5.87;3.53;;;18.00;99.90;;;;;;5112458;28;20285;-81
2023/05/30 08:03:16;;;;;;;5.97;3.87;;;18.20;99.90;;;;;;5094005;28;20168;-80
2023/05/30 08:05:42;;;;;;;4.23;3.37;;;18.30;99.90;;;;;;5112475;28;20176;-80
2023/05/30 08:08:08;;;;;;;6.60;4.20;;;18.50;99.90;;;;;;5103537;28;20226;-80
2023/05/30 08:10:34;;;;;;;6.23;3.97;;;18.50;99.90;;;;;;5098602;28;20237;-80
2023/05/30 08:13:00;;;;;;;5.67;4.10;;;18.60;99.90;;;;;;5098457;28;20169;-81
2023/05/30 08:15:27;;;;;;;6.63;4.00;;;18.70;99.90;;;;;;5098382;28;20666;-81
2023/05/30 08:17:53;;;;;;;7.30;3.87;;;18.70;99.90;;;;;;5080490;28;20215;-82
2023/05/30 08:20:18;;;;;;;7.50;4.30;;;18.80;99.90;;;;;;5081151;28;20638;-81
2023/05/30 08:22:44;;;;;;;7.30;3.93;;;19.00;99.90;;;;;;5103277;28;20173;-80
2023/05/30 08:25:10;;;;;;;9.13;4.40;;;19.20;99.90;;;;;;5098744;28;20711;-80
2023/05/30 08:27:37;;;;;;;7.17;3.87;;;19.50;99.90;;;;;;5098185;28;20585;-80
2023/05/30 08:30:04;;;;;;;6.20;3.47;;;19.70;99.90;;;;;;5080092;28;20616;-80
2023/05/30 08:32:30;;;;;;;9.60;4.00;;;19.90;99.90;;;;;;5098332;28;20689;-80
2023/05/30 08:34:56;;;;;;;8.93;4.50;;;20.00;99.90;;;;;;5098485;28;20220;-81
2023/05/30 08:37:21;;;;;;;6.60;4.10;;;20.20;99.90;;;;;;5080770;28;20208;-81
2023/05/30 08:39:47;;;;;;;8.03;3.97;;;20.30;99.90;;;;;;5097967;28;20177;-80
2023/05/30 08:42:13;;;;;;;5.77;4.37;;;20.40;99.90;;;;;;5098979;28;20172;-82
2023/05/30 08:44:40;;;;;;;5.67;3.70;;;20.60;99.90;;;;;;5098589;28;20191;-81
2023/05/30 08:47:11;;;;;;;8.90;3.93;;;20.80;99.90;;;;;;5097513;28;20183;-82
2023/05/30 08:49:42;;;;;;;4.03;3.60;;;21.00;99.90;;;;;;5101867;28;20182;-81
2023/05/30 08:52:12;;;;;;;6.27;3.90;;;21.20;99.90;;;;;;5109767;28;20175;-81
2023/05/30 08:54:48;;;;;;;7.57;3.90;;;21.20;99.90;;;;;;5085842;28;20199;-81
2023/05/30 08:57:28;;;;;;;5.87;4.37;;;21.30;99.90;;;;;;5097704;28;20229;-82
2023/05/30 08:59:55;;;;;;;6.00;3.87;;;21.30;99.90;;;;;;5097925;28;20243;-81
2023/05/30 09:02:21;;;;;;;4.57;3.80;;;21.50;99.90;;;;;;5098134;28;20667;-81
2023/05/30 09:04:50;;;;;;;5.27;3.60;;;21.60;99.90;;;;;;5113118;28;20213;-80
2023/05/30 09:07:17;;;;;;;5.43;3.90;;;21.70;99.90;;;;;;5100707;28;20211;-82
2023/05/30 09:09:43;;;;;;;6.83;4.40;;;21.90;99.90;;;;;;5111170;28;20560;-81
2023/05/30 09:12:09;;;;;;;5.87;3.50;;;22.00;99.90;;;;;;5105881;28;20226;-81
2023/05/30 09:14:35;;;;;;;6.47;3.83;;;22.30;99.90;;;;;;5101076;28;20227;-82
2023/05/30 09:17:01;;;;;;;6.87;3.80;;;22.50;99.90;;;;;;5097022;28;20682;-81
2023/05/30 09:19:27;;;;;;;4.17;3.63;;;22.50;99.90;;;;;;5095950;28;20642;-81
2023/05/30 09:21:52;;;;;;;7.03;4.33;;;22.60;99.90;;;;;;5096724;28;20240;-81
2023/05/30 09:24:18;;;;;;;8.17;3.60;;;22.80;99.90;;;;;;5096896;28;20206;-80
2023/05/30 09:26:58;;;;;;;6.63;4.33;;;22.90;99.90;;;;;;5097069;28;20249;-80
2023/05/30 09:29:25;;;;;;;5.03;3.67;;;22.90;99.90;;;;;;5078765;28;20226;-81
2023/05/30 09:31:51;;;;;;;7.27;3.37;;;22.90;99.90;;;;;;5078634;28;20286;-81
2023/05/30 09:34:20;;;;;;;5.50;3.80;;;23.10;99.90;;;;;;5097343;28;20223;-81
2023/05/30 09:36:55;;;;;;;4.87;3.70;;;23.30;99.90;;;;;;5080361;28;20235;-81
2023/05/30 09:39:21;;;;;;;6.83;3.53;;;23.50;99.90;;;;;;5104533;28;20188;-81
2023/05/30 09:41:47;;;;;;;6.70;3.63;;;23.60;99.40;;;;;;5103033;28;20168;-81
2023/05/30 09:44:13;;;;;;;6.70;3.80;;;23.70;99.90;;;;;;5096613;28;20188;-81
2023/05/30 09:46:39;;;;;;;5.60;3.63;;;24.00;99.50;;;;;;5078133;28;20222;-81
2023/05/30 09:49:12;;;;;;;5.93;3.80;;;24.30;98.80;;;;;;5078436;28;20180;-81
2023/05/30 09:51:37;;;;;;;7.10;3.43;;;24.20;95.40;;;;;;5096099;28;20251;-81
2023/05/30 09:54:05;;;;;;;6.33;3.97;;;24.30;98.20;;;;;;5095314;28;20618;-81
2023/05/30 09:56:40;;;;;;;7.33;3.67;;;24.50;95.40;;;;;;5077236;28;20226;-82
2023/05/30 09:59:13;;;;;;;3.97;3.40;;;24.70;95.50;;;;;;5077169;28;20634;-81
2023/05/30 10:01:46;;;;;;;9.00;3.90;;;25.00;93.40;;;;;;5077622;28;20165;-80
2023/05/30 10:04:14;;;;;;;7.60;3.37;;;25.00;93.00;;;;;;5076933;28;20194;-81
2023/05/30 10:06:42;;;;;;;7.30;3.77;;;25.20;96.90;;;;;;5077229;28;20182;-82
2023/05/30 10:09:09;;;;;;;4.73;3.50;;;25.40;93.60;;;;;;5095135;28;20529;-80
2023/05/30 10:11:38;;;;;;;9.13;3.93;;;25.20;95.20;;;;;;5077248;28;20185;-82
2023/05/30 10:14:05;;;;;;;8.10;3.87;;;25.00;92.10;;;;;;5095897;28;20219;-79
2023/05/30 10:16:33;;;;;;;6.10;3.60;;;24.90;96.10;;;;;;5095067;28;20196;-80
2023/05/30 10:19:02;;;;;;;8.03;4.00;;;25.00;91.10;;;;;;5094863;28;20193;-79
2023/05/30 10:21:31;;;;;;;5.03;3.30;;;24.80;91.80;;;;;;5095178;28;20249;-79
2023/05/30 10:23:59;;;;;;;6.23;3.87;;;24.80;94.30;;;;;;5095553;28;20254;-79
2023/05/30 10:26:30;;;;;;;5.97;3.67;;;25.00;91.90;;;;;;5077756;28;20232;-79
2023/05/30 10:28:56;;;;;;;6.73;3.83;;;25.10;90.80;;;;;;5096336;28;20165;-78
2023/05/30 10:31:25;;;;;;;7.17;3.77;;;25.10;94.60;;;;;;5095270;28;20598;-78
2023/05/30 10:33:52;;;;;;;7.13;3.57;;;24.60;90.50;;;;;;5095431;28;20201;-79
2023/05/30 10:36:20;;;;;;;10.97;3.63;;;24.20;93.70;;;;;;5094852;28;20196;-78
2023/05/30 10:38:59;;;;;;;7.20;3.87;;;24.60;92.40;;;;;;5095475;28;20200;-80
2023/05/30 10:41:35;;;;;;;4.40;3.43;;;25.00;92.00;;;;;;5076799;28;20180;-79
2023/05/30 10:44:17;;;;;;;6.07;4.03;;;24.90;91.10;;;;;;5094922;28;20260;-80
2023/05/30 10:46:59;;;;;;;5.87;3.70;;;24.80;90.80;;;;;;5095746;28;20180;-78
2023/05/30 10:49:26;;;;;;;7.47;3.87;;;24.90;92.90;;;;;;5095992;28;20149;-80
2023/05/30 10:52:10;;;;;;;7.87;4.13;;;24.90;92.30;;;;;;5077119;28;20180;-79
2023/05/30 10:54:37;;;;;;;9.93;4.07;;;24.70;89.90;;;;;;5078574;28;20204;-79
2023/05/30 10:57:20;;;;;;;5.53;4.07;;;24.20;89.80;;;;;;5098934;28;20208;-81
2023/05/30 10:59:46;;;;;;;4.03;3.63;;;24.40;91.60;;;;;;5100564;28;20259;-82
2023/05/30 11:02:20;;;;;;;4.47;3.33;;;24.70;91.90;;;;;;5094652;28;20199;-83
2023/05/30 11:04:49;;;;;;;6.40;3.63;;;24.50;90.00;;;;;;5077501;28;20205;-81
2023/05/30 11:07:17;;;;;;;5.60;3.70;;;24.00;90.10;;;;;;5095538;28;20231;-83
2023/05/30 11:10:00;;;;;;;3.93;3.40;;;24.40;93.30;;;;;;5095470;28;20168;-80
2023/05/30 11:12:26;;;;;;;4.43;3.63;;;25.30;92.50;;;;;;5095244;28;20192;-80
2023/05/30 11:14:59;;;;;;;6.73;3.93;;;25.50;90.00;;;;;;5078137;28;20515;-81
2023/05/30 11:17:35;;;;;;;7.57;3.90;;;25.00;87.00;;;;;;5095471;28;20225;-82
2023/05/30 11:20:16;;;;;;;7.00;3.70;;;24.30;90.50;;;;;;5077564;28;20634;-82
2023/05/30 11:23:01;;;;;;;5.60;3.90;;;23.70;90.10;;;;;;5096140;28;20156;-82
2023/05/30 11:25:29;;;;;;;10.23;4.13;;;22.80;89.80;;;;;;5077521;28;20224;-82
2023/05/30 11:28:04;;;;;;;7.80;3.83;;;22.40;91.00;;;;;;5077367;28;20600;-81
2023/05/30 11:30:32;;;;;;;8.30;4.03;;;22.30;91.30;;;;;;5095608;28;20173;-83
2023/05/30 11:32:59;;;;;;;8.37;4.30;;;23.10;93.30;;;;;;5077624;28;20555;-80
2023/05/30 11:35:28;;;;;;;4.90;3.50;;;23.30;90.00;;;;;;5077344;28;20295;-81
2023/05/30 11:37:55;;;;;;;7.60;3.77;;;23.90;90.30;;;;;;5095921;28;20251;-82
2023/05/30 11:40:22;;;;;;;5.03;3.67;;;24.40;91.50;;;;;;5076776;28;20170;-80
2023/05/30 11:42:54;;;;;;;7.13;3.60;;;24.70;91.30;;;;;;5078470;28;20226;-81
2023/05/30 11:45:28;;;;;;;5.37;3.73;;;25.60;89.80;;;;;;5081205;28;20192;-83
2023/05/30 11:48:05;;;;;;;4.40;3.53;;;26.70;91.70;;;;;;5099461;28;20582;-83
2023/05/30 11:50:37;;;;;;;6.77;3.63;;;27.70;87.30;;;;;;5099098;28;20205;-80
2023/05/30 11:53:08;;;;;;;7.87;3.40;;;28.20;77.90;;;;;;5080624;28;20626;-80
2023/05/30 11:55:34;;;;;;;4.43;3.03;;;28.60;76.20;;;;;;5080369;28;20188;-79
2023/05/30 11:57:59;;;;;;;5.50;3.33;;;29.00;75.60;;;;;;5099756;28;20160;-79
2023/05/30 12:00:25;;;;;;;6.67;2.93;;;27.70;67.60;;;;;;5099680;28;20179;-79
2023/05/30 12:02:52;;;;;;;3.63;2.80;;;26.70;72.00;;;;;;5107226;28;20165;-79
2023/05/30 12:05:18;;;;;;;7.53;3.00;;;27.10;71.10;;;;;;5101063;28;20193;-79
2023/05/30 12:07:43;;;;;;;5.33;2.80;;;27.80;72.60;;;;;;5099053;28;20179;-80
2023/05/30 12:10:09;;;;;;;4.53;2.70;;;28.80;73.10;;;;;;5098684;28;20157;-82
2023/05/30 12:12:35;;;;;;;6.97;2.90;;;29.80;74.10;;;;;;5081598;28;20180;-82
2023/05/30 12:15:03;;;;;;;4.23;2.70;;;30.20;63.40;;;;;;5085329;28;20706;-83
2023/05/30 12:17:29;;;;;;;4.13;2.83;;;30.50;60.80;;;;;;5080767;28;20207;-81
2023/05/30 12:20:06;;;;;;;4.00;2.83;;;29.00;60.80;;;;;;5106477;28;20173;-80
2023/05/30 12:22:32;;;;;;;7.10;2.87;;;26.90;62.30;;;;;;5117197;28;20164;-81
2023/05/30 12:24:58;;;;;;;3.87;2.70;;;25.40;67.00;;;;;;5116969;28;20195;-80
2023/05/30 12:27:27;;;;;;;3.63;2.67;;;24.30;70.20;;;;;;5119391;28;20247;-80
2023/05/30 12:29:53;;;;;;;5.53;3.10;;;23.60;71.30;;;;;;5106390;28;20172;-80
2023/05/30 12:32:26;;;;;;;4.43;2.90;;;23.30;72.10;;;;;;5079988;28;20172;-79
2023/05/30 12:34:58;;;;;;;3.57;2.90;;;24.10;72.90;;;;;;5079637;28;20203;-80
2023/05/30 12:37:24;;;;;;;7.43;3.10;;;26.10;72.30;;;;;;5079873;28;20201;-80
2023/05/30 12:39:57;;;;;;;6.13;2.90;;;27.80;67.10;;;;;;5096796;28;20175;-79
2023/05/30 12:42:27;;;;;;;4.10;3.20;;;28.10;64.90;;;;;;5097176;28;20168;-81
2023/05/30 12:45:14;;;;;;;5.87;2.70;;;27.90;61.60;;;;;;5096748;28;20556;-80
2023/05/30 12:47:40;;;;;;;3.17;2.87;;;28.00;64.90;;;;;;5079105;28;20547;-81
2023/05/30 12:50:06;;;;;;;5.17;2.80;;;28.00;74.10;;;;;;5078886;28;20178;-81
2023/05/30 12:52:32;;;;;;;5.47;3.00;;;28.20;62.60;;;;;;5078852;28;20709;-82
2023/05/30 12:54:57;;;;;;;3.37;2.80;;;28.00;64.60;;;;;;5078227;28;20288;-81
2023/05/30 12:57:25;;;;;;;3.40;2.70;;;27.50;59.90;;;;;;5097225;28;20212;-82
2023/05/30 12:59:55;;;;;;;6.23;2.60;;;27.20;62.60;;;;;;5096910;28;20165;-82
2023/05/30 13:02:24;;;;;;;5.27;2.93;;;28.00;64.00;;;;;;5097422;28;20247;-81
2023/05/30 13:04:51;;;;;;;3.87;2.80;;;28.40;60.10;;;;;;5078257;28;20564;-82
2023/05/30 13:07:18;;;;;;;4.73;2.83;;;28.50;59.90;;;;;;5096675;28;20204;-82
2023/05/30 13:09:44;;;;;;;6.13;3.30;;;28.80;62.00;;;;;;5096352;28;20704;-82
2023/05/30 13:12:10;;;;;;;5.37;3.10;;;27.80;59.70;;;;;;5097057;28;20175;-82
2023/05/30 13:14:37;;;;;;;6.20;3.00;;;27.60;60.80;;;;;;5079377;28;20241;-82
2023/05/30 13:17:05;;;;;;;10.33;3.17;;;27.70;60.20;;;;;;5079566;28;20604;-83
2023/05/30 13:19:31;;;;;;;4.80;3.10;;;27.60;62.90;;;;;;5097595;28;20171;-82
2023/05/30 13:21:57;;;;;;;4.20;3.03;;;28.20;60.60;;;;;;5079309;28;20182;-82
2023/05/30 13:24:23;;;;;;;4.57;2.83;;;28.80;61.40;;;;;;5097612;28;20197;-83
2023/05/30 13:26:49;;;;;;;3.67;3.07;;;29.20;59.10;;;;;;5081172;28;20178;-83
2023/05/30 13:29:14;;;;;;;3.77;3.30;;;29.70;57.50;;;;;;5103684;28;20283;-81
2023/05/30 13:31:40;;;;;;;10.67;3.20;;;30.00;56.00;;;;;;5096605;28;20542;-81
2023/05/30 13:34:06;;;;;;;4.23;3.20;;;28.70;56.00;;;;;;5096024;28;20693;-81
2023/05/30 13:36:31;;;;;;;7.43;2.97;;;28.00;58.50;;;;;;5097468;28;20203;-80
2023/05/30 13:38:57;;;;;;;7.37;2.90;;;27.20;59.90;;;;;;5103507;28;20642;-81
2023/05/30 13:41:25;;;;;;;5.20;2.93;;;26.60;59.60;;;;;;5097919;28;20195;-82
2023/05/30 13:43:52;;;;;;;4.00;3.03;;;26.90;59.80;;;;;;5096698;28;20605;-81
2023/05/30 13:46:18;;;;;;;11.03;3.40;;;26.20;61.40;;;;;;5078128;28;20199;-81
2023/05/30 13:48:44;;;;;;;5.53;3.30;;;26.10;61.60;;;;;;5078207;28;20227;-82
2023/05/30 13:51:10;;;;;;;3.33;3.00;;;25.80;60.90;;;;;;5077918;28;20212;-81
2023/05/30 13:53:36;;;;;;;4.03;3.07;;;25.40;60.50;;;;;;5095987;28;20186;-81
2023/05/30 13:56:02;;;;;;;4.97;3.17;;;26.30;61.80;;;;;;5078083;28;20297;-81
2023/05/30 13:58:28;;;;;;;4.60;3.00;;;27.50;68.80;;;;;;5078361;28;20181;-81
2023/05/30 14:00:54;;;;;;;5.70;3.20;;;28.40;57.90;;;;;;5078527;28;20177;-82
2023/05/30 14:03:19;;;;;;;3.30;3.00;;;28.80;60.20;;;;;;5079309;28;20175;-83
2023/05/30 14:05:45;;;;;;;5.27;3.20;;;29.30;59.00;;;;;;5096421;28;20183;-83
2023/05/30 14:08:11;;;;;;;3.63;2.70;;;29.00;56.50;;;;;;5078546;28;20176;-81
2023/05/30 14:10:37;;;;;;;10.30;2.97;;;29.30;58.70;;;;;;5097191;28;20554;-80
2023/05/30 14:13:04;;;;;;;5.20;2.93;;;29.70;58.50;;;;;;5096242;28;20179;-81
2023/05/30 14:15:30;;;;;;;5.47;2.80;;;30.10;55.00;;;;;;5077779;28;20680;-82
2023/05/30 14:17:56;;;;;;;4.17;2.97;;;30.30;56.70;;;;;;5077661;28;20187;-82
2023/05/30 14:20:22;;;;;;;6.00;2.80;;;29.90;57.60;;;;;;5095912;28;20263;-81
2023/05/30 14:22:48;;;;;;;4.67;3.00;;;29.90;54.40;;;;;;5096623;28;20211;-82
2023/05/30 14:25:14;;;;;;;4.20;2.73;;;29.80;57.00;;;;;;5097275;28;20192;-82
2023/05/30 14:27:39;;;;;;;4.87;2.90;;;28.90;53.70;;;;;;5105354;28;20180;-82
2023/05/30 14:30:12;;;;;;;10.07;3.70;;;29.00;58.80;;;;;;5110546;28;20188;-82
2023/05/30 14:32:38;;;;;;;7.37;3.27;;;29.40;54.40;;;;;;5096102;28;20587;-82
2023/05/30 14:35:05;;;;;;;3.27;2.60;;;30.10;58.90;;;;;;5077674;28;20245;-81
2023/05/30 14:37:30;;;;;;;3.57;2.60;;;30.30;54.30;;;;;;5096105;28;20273;-79
2023/05/30 14:39:58;;;;;;;4.60;3.10;;;30.10;55.10;;;;;;5096162;28;20177;-83
2023/05/30 14:42:23;;;;;;;5.60;2.80;;;29.50;53.30;;;;;;5097743;28;20199;-81
2023/05/30 14:44:50;;;;;;;3.47;2.87;;;29.50;56.50;;;;;;5082280;28;20192;-81
2023/05/30 14:47:16;;;;;;;4.27;2.90;;;29.30;52.10;;;;;;5077229;28;20188;-81
2023/05/30 14:49:42;;;;;;;3.50;3.00;;;29.20;52.70;;;;;;5095509;28;20186;-80
2023/05/30 14:52:08;;;;;;;3.43;2.60;;;29.40;54.60;;;;;;5095710;28;20264;-81
2023/05/30 14:54:33;;;;;;;5.60;2.80;;;29.40;54.60;;;;;;5077722;28;20204;-81
2023/05/30 14:57:01;;;;;;;9.03;3.07;;;29.20;56.00;;;;;;5076781;28;20218;-82
2023/05/30 14:59:26;;;;;;;2.83;2.40;;;28.80;55.20;;;;;;5077043;28;20244;-81
2023/05/30 15:01:52;;;;;;;3.73;3.00;;;28.70;55.30;;;;;;5096008;28;20214;-83
2023/05/30 15:04:18;;;;;;;4.30;3.13;;;28.50;58.10;;;;;;5101143;28;20222;-81
2023/05/30 15:06:44;;;;;;;7.83;2.97;;;28.40;55.90;;;;;;5100433;28;20187;-81
2023/05/30 15:09:09;;;;;;;6.83;3.13;;;28.60;57.40;;;;;;5104154;28;20179;-80
2023/05/30 15:11:35;;;;;;;6.33;2.60;;;28.90;57.00;;;;;;5112809;28;20184;-81
2023/05/30 15:14:01;;;;;;;5.33;2.97;;;28.80;55.30;;;;;;5090012;28;20692;-79
2023/05/30 15:16:27;;;;;;;5.83;2.93;;;28.50;54.70;;;;;;5105187;28;20200;-82
2023/05/30 15:18:53;;;;;;;8.60;2.97;;;28.30;56.60;;;;;;5103155;28;20255;-78
2023/05/30 15:21:18;;;;;;;9.70;3.10;;;27.90;55.90;;;;;;5099811;28;20594;-80
2023/05/30 15:23:44;;;;;;;10.13;2.80;;;27.80;57.00;;;;;;5099839;28;20653;-81
2023/05/30 15:26:10;;;;;;;7.10;2.73;;;27.80;57.90;;;;;;5100240;28;20255;-79
2023/05/30 15:28:36;;;;;;;5.37;2.83;;;27.70;56.80;;;;;;5102126;28;20281;-79
2023/05/30 15:31:01;;;;;;;3.73;3.20;;;27.70;57.60;;;;;;5100966;28;20200;-79
2023/05/30 15:33:30;;;;;;;8.33;3.07;;;26.70;56.30;;;;;;5100601;28;20184;-81
2023/05/30 15:35:56;;;;;;;7.17;3.20;;;26.50;57.30;;;;;;5101361;28;20214;-80
2023/05/30 15:38:21;;;;;;;6.50;3.30;;;25.20;59.20;;;;;;5101188;28;20181;-80
2023/05/30 15:40:47;;;;;;;7.07;3.60;;;24.10;62.20;;;;;;5101791;28;20233;-80
2023/05/30 15:43:13;;;;;;;4.57;3.30;;;23.40;62.70;;;;;;5101002;28;20256;-79
2023/05/30 15:45:39;;;;;;;4.53;3.00;;;22.90;64.50;;;;;;5101196;28;20180;-80
2023/05/30 15:48:04;;;;;;;3.67;2.90;;;23.40;63.70;;;;;;5083639;28;20173;-79
2023/05/30 15:50:30;;;;;;;5.33;3.07;;;24.00;62.40;;;;;;5099989;28;20634;-78
2023/05/30 15:52:56;;;;;;;7.33;3.53;;;24.80;60.80;;;;;;5101489;28;20180;-80
2023/05/30 15:55:21;;;;;;;7.30;3.47;;;25.50;62.10;;;;;;5099598;28;20224;-80
2023/05/30 15:57:47;;;;;;;5.50;3.53;;;25.70;59.10;;;;;;5103658;28;20197;-79
2023/05/30 16:00:15;;;;;;;5.27;3.70;;;25.70;59.10;;;;;;5082841;28;20629;-79
2023/05/30 16:02:41;;;;;;;8.60;3.50;;;25.50;58.80;;;;;;5082544;28;20184;-80
2023/05/30 16:05:08;;;;;;;5.90;3.30;;;24.40;59.90;;;;;;5100455;28;20184;-80
2023/05/30 16:07:34;;;;;;;7.53;3.33;;;24.00;62.80;;;;;;5100640;28;20655;-80
2023/05/30 16:10:00;;;;;;;6.87;3.00;;;23.90;62.90;;;;;;5099029;28;20230;-80
2023/05/30 16:12:26;;;;;;;9.20;3.47;;;23.90;64.90;;;;;;5100042;28;20184;-80
2023/05/30 16:14:52;;;;;;;6.50;3.37;;;23.70;66.70;;;;;;5100425;28;20388;-79
2023/05/30 16:17:18;;;;;;;5.87;3.60;;;23.60;66.40;;;;;;5100143;28;20212;-80
2023/05/30 16:19:44;;;;;;;6.90;3.70;;;23.70;64.90;;;;;;5100559;28;20181;-80
2023/05/30 16:22:10;;;;;;;4.03;3.30;;;23.60;66.60;;;;;;5099606;28;20592;-80
2023/05/30 16:24:35;;;;;;;8.33;3.57;;;23.40;65.00;;;;;;5081479;28;20204;-81
2023/05/30 16:27:04;;;;;;;5.27;3.13;;;23.00;64.60;;;;;;5100750;28;20181;-81
2023/05/30 16:29:30;;;;;;;4.63;3.40;;;22.60;65.80;;;;;;5100683;28;20168;-80
2023/05/30 16:31:59;;;;;;;11.30;3.83;;;22.10;65.70;;;;;;5099986;28;20180;-81
2023/05/30 16:34:25;;;;;;;6.70;3.50;;;21.70;67.40;;;;;;5082539;28;20338;-80
2023/05/30 16:36:51;;;;;;;11.10;3.57;;;21.50;69.10;;;;;;5100016;28;20223;-79
2023/05/30 16:39:17;;;;;;;11.60;3.93;;;21.30;67.90;;;;;;5099984;28;20623;-80
2023/05/30 16:41:42;;;;;;;5.33;3.40;;;21.20;67.30;;;;;;5082152;28;20271;-79
2023/05/30 16:44:08;;;;;;;6.13;3.30;;;21.00;68.00;;;;;;5099954;28;20551;-79
2023/05/30 16:46:41;;;;;;;5.27;3.33;;;21.00;68.80;;;;;;5099959;28;20241;-78
2023/05/30 16:49:06;;;;;;;4.53;3.03;;;20.90;68.70;;;;;;5082285;28;20634;-80
2023/05/30 16:51:32;;;;;;;5.53;3.23;;;20.90;69.60;;;;;;5101681;28;20172;-80
2023/05/30 16:53:58;;;;;;;4.73;3.20;;;20.90;68.40;;;;;;5102659;28;20204;-79
2023/05/30 16:56:25;;;;;;;4.80;3.20;;;20.70;69.90;;;;;;5105264;28;20546;-79
2023/05/30 16:58:51;;;;;;;7.17;3.33;;;20.80;70.70;;;;;;5112885;28;20173;-78
2023/05/30 17:01:17;;;;;;;4.53;3.60;;;20.80;70.70;;;;;;5080493;28;20180;-79
2023/05/30 17:03:43;;;;;;;6.33;3.13;;;20.90;70.80;;;;;;5102195;28;20249;-78
2023/05/30 17:06:09;;;;;;;4.60;3.57;;;20.90;70.20;;;;;;5101354;28;20176;-78
2023/05/30 17:16:10;;;;;;;6.43;3.27;;;20.90;69.80;;;;;;5133208;27;20263;-77
2023/05/30 17:25:57;;;;;;;3.87;3.00;;;20.40;69.20;;;;;;5134279;27;20273;-81
2023/05/30 17:36:45;;;;;;;5.70;3.67;;;19.90;70.10;;;;;;5134645;27;20612;-83
2023/05/30 17:48:29;;;;;;;4.60;3.00;;;19.80;71.00;;;;;;5138272;27;20686;-83
2023/05/30 18:01:01;;;;;;;9.37;3.50;;;19.40;72.70;;;;;;5141191;27;20683;-79
